Olga, WA (98279)

3:57 AM PDT on September 02, 2015 (GMT -0700)
West Slope Mount Constitution - Orcas Island | | Change Station
CLOSE
Current Station
Personal Weather Station
Location: Eastsound, WA
Elevation: 1033 ft
Nearby Weather Stations

Elev 1033 ft 48.67 °N, 122.87 °W | Updated 6 minutes ago

Partly Cloudy
Partly Cloudy
49.9 °F
Feels Like 48 °F
N
6.0
Wind Variable Wind from West
Gusts 8.0 mph

Today
High -- | Low -- °F
--% Chance of Precip.
Yesterday
High -- | Low -- °F
Precip. -- in
6:29 AM 7:51 PM
Waning Gibbous, 81% visible
Pressure 29.77 in
Visibility 10.0 miles
Clouds Few 11000 ft
Windchill 48 °F
Dew Point 44 °F
Humidity 79%
Rainfall 0.00 in
Snow Depth Not available.
UV 0 out of 12
Pollen .50 out of 12
Air Quality Not available.
Flu Activity Not available.
METAR KORS 021055Z AUTO 22006KT 10SM FEW110 13/07 A2977 RMK AO2
Pressure 29.77 in
Visibility 10.0 miles
Clouds Few 11000 ft
Windchill 48 °F
Dew Point 44 °F
Humidity 79%
Rainfall 0.00 in
Snow Depth Not available.
UV 0 out of 12
Pollen .50 out of 12
Air Quality Not available.
Flu Activity Not available.
METAR KORS 021055Z AUTO 22006KT 10SM FEW110 13/07 A2977 RMK AO2

10-Day Weather Forecast

×

Almanac

Astronomy

Sep. 02, 2015 Rise Set
Actual Time
Civil Twilight
Nautical Twilight
Astronomical Twilight
Moon
Length of Visible Light
Length of Day
Tomorrow will be .
, % of the Moon is Illuminated

Today's Extremes

State Highs State Lows

Community

WunderPhotos

Upload Photos

1,851,734 photos uploaded!

WunderBlogs® & News

Nearby

Air Quality

  Air Quality AQ Index Pollutant
Not available.

Snow Depth

Station Depth Elevation

Earthquake Activity

City Distance Mag. Time & Date
Minimum magnitude displayed is 2.5.

Coastal Water Temperatures

Place Temperature

Stations

Nearby Weather Stations

Station Location Temp. Windchill Dew Point Humidity Wind Precip. Elev Updated Type